sensor_id;sensor_type;location;lat;lon;timestamp;pressure;altitude;pressure_sealevel;temperature;humidity
5651;BME280;40241;52.684;9.758;2023-05-25T00:01:49;102284.28;;;12.02;58.52
5651;BME280;40241;52.684;9.758;2023-05-25T00:04:18;102286.16;;;11.96;58.46
5651;BME280;40241;52.684;9.758;2023-05-25T00:06:44;102269.44;;;11.91;58.54
5651;BME280;40241;52.684;9.758;2023-05-25T00:09:11;102272.38;;;11.87;58.62
5651;BME280;40241;52.684;9.758;2023-05-25T00:11:37;102277.28;;;11.83;58.72
5651;BME280;40241;52.684;9.758;2023-05-25T00:14:02;102279.09;;;11.86;58.78
5651;BME280;40241;52.684;9.758;2023-05-25T00:16:28;102270.06;;;11.86;58.79
5651;BME280;40241;52.684;9.758;2023-05-25T00:18:53;102270.22;;;11.82;58.90
5651;BME280;40241;52.684;9.758;2023-05-25T00:21:21;102273.91;;;11.79;58.67
5651;BME280;40241;52.684;9.758;2023-05-25T00:23:48;102272.06;;;11.76;58.89
5651;BME280;40241;52.684;9.758;2023-05-25T00:26:13;102271.28;;;11.76;59.02
5651;BME280;40241;52.684;9.758;2023-05-25T00:28:39;102273.28;;;11.75;58.95
5651;BME280;40241;52.684;9.758;2023-05-25T00:31:04;102274.53;;;11.74;58.79
5651;BME280;40241;52.684;9.758;2023-05-25T00:33:29;102287.53;;;11.74;58.96
5651;BME280;40241;52.684;9.758;2023-05-25T00:35:55;102269.63;;;11.69;58.66
5651;BME280;40241;52.684;9.758;2023-05-25T00:38:21;102267.75;;;11.66;58.86
5651;BME280;40241;52.684;9.758;2023-05-25T00:40:46;102275.69;;;11.64;58.94
5651;BME280;40241;52.684;9.758;2023-05-25T00:43:12;102270.19;;;11.64;58.87
5651;BME280;40241;52.684;9.758;2023-05-25T00:45:38;102266.81;;;11.60;58.55
5651;BME280;40241;52.684;9.758;2023-05-25T00:48:04;102270.22;;;11.55;58.66
5651;BME280;40241;52.684;9.758;2023-05-25T00:50:38;102262.06;;;11.52;59.04
5651;BME280;40241;52.684;9.758;2023-05-25T00:53:05;102265.31;;;11.50;58.78
5651;BME280;40241;52.684;9.758;2023-05-25T00:55:34;102260.69;;;11.47;59.00
5651;BME280;40241;52.684;9.758;2023-05-25T00:58:02;102269.44;;;11.46;58.71
5651;BME280;40241;52.684;9.758;2023-05-25T01:00:29;102260.84;;;11.44;58.59
5651;BME280;40241;52.684;9.758;2023-05-25T01:02:57;102262.22;;;11.39;58.79
5651;BME280;40241;52.684;9.758;2023-05-25T01:05:24;102255.81;;;11.33;58.75
5651;BME280;40241;52.684;9.758;2023-05-25T01:07:54;102260.72;;;11.29;58.51
5651;BME280;40241;52.684;9.758;2023-05-25T01:10:21;102269.69;;;11.20;58.62
5651;BME280;40241;52.684;9.758;2023-05-25T01:12:50;102264.81;;;11.15;58.71
5651;BME280;40241;52.684;9.758;2023-05-25T01:15:17;102257.44;;;11.12;58.84
5651;BME280;40241;52.684;9.758;2023-05-25T01:17:44;102265.56;;;11.07;59.10
5651;BME280;40241;52.684;9.758;2023-05-25T01:20:10;102270.16;;;11.10;58.94
5651;BME280;40241;52.684;9.758;2023-05-25T01:22:41;102273.22;;;11.12;59.04
5651;BME280;40241;52.684;9.758;2023-05-25T01:25:26;102281.16;;;11.10;59.61
5651;BME280;40241;52.684;9.758;2023-05-25T01:28:22;102280.09;;;11.07;59.70
5651;BME280;40241;52.684;9.758;2023-05-25T01:30:51;102279.03;;;11.05;59.14
5651;BME280;40241;52.684;9.758;2023-05-25T01:33:17;102279.47;;;11.03;58.96
5651;BME280;40241;52.684;9.758;2023-05-25T01:35:43;102274.41;;;11.02;59.34
5651;BME280;40241;52.684;9.758;2023-05-25T01:38:09;102285.59;;;11.07;59.22
5651;BME280;40241;52.684;9.758;2023-05-25T01:40:35;102283.47;;;11.11;59.29
5651;BME280;40241;52.684;9.758;2023-05-25T01:43:00;102282.56;;;11.14;59.37
5651;BME280;40241;52.684;9.758;2023-05-25T01:45:26;102285.63;;;11.16;59.13
5651;BME280;40241;52.684;9.758;2023-05-25T01:50:36;102272.16;;;11.18;59.39
5651;BME280;40241;52.684;9.758;2023-05-25T01:53:08;102302.00;;;11.20;59.42
5651;BME280;40241;52.684;9.758;2023-05-25T01:55:46;102278.31;;;11.22;59.82
5651;BME280;40241;52.684;9.758;2023-05-25T01:58:14;102281.66;;;11.26;59.43
5651;BME280;40241;52.684;9.758;2023-05-25T02:00:41;102280.31;;;11.31;59.51
5651;BME280;40241;52.684;9.758;2023-05-25T02:03:07;102276.19;;;11.36;59.45
5651;BME280;40241;52.684;9.758;2023-05-25T02:05:34;102282.13;;;11.43;59.48
5651;BME280;40241;52.684;9.758;2023-05-25T02:08:00;102276.47;;;11.47;59.54
5651;BME280;40241;52.684;9.758;2023-05-25T02:10:25;102276.31;;;11.50;59.64
5651;BME280;40241;52.684;9.758;2023-05-25T02:12:50;102280.31;;;11.58;59.70
5651;BME280;40241;52.684;9.758;2023-05-25T02:15:17;102283.66;;;11.62;59.80
5651;BME280;40241;52.684;9.758;2023-05-25T02:17:42;102281.09;;;11.68;59.71
5651;BME280;40241;52.684;9.758;2023-05-25T02:20:09;102279.72;;;11.72;59.72
5651;BME280;40241;52.684;9.758;2023-05-25T02:22:35;102274.53;;;11.74;59.79
5651;BME280;40241;52.684;9.758;2023-05-25T02:25:02;102278.34;;;11.77;59.87
5651;BME280;40241;52.684;9.758;2023-05-25T02:27:27;102271.59;;;11.78;59.95
5651;BME280;40241;52.684;9.758;2023-05-25T02:29:52;102281.25;;;11.82;60.12
5651;BME280;40241;52.684;9.758;2023-05-25T02:32:18;102274.81;;;11.85;60.04
5651;BME280;40241;52.684;9.758;2023-05-25T02:34:43;102283.69;;;11.89;60.00
5651;BME280;40241;52.684;9.758;2023-05-25T02:37:08;102278.47;;;11.91;60.02
5651;BME280;40241;52.684;9.758;2023-05-25T02:39:34;102284.31;;;11.93;60.17
5651;BME280;40241;52.684;9.758;2023-05-25T02:41:59;102285.38;;;11.96;60.20
5651;BME280;40241;52.684;9.758;2023-05-25T02:44:25;102290.72;;;11.99;60.33
5651;BME280;40241;52.684;9.758;2023-05-25T02:46:50;102274.78;;;12.03;60.20
5651;BME280;40241;52.684;9.758;2023-05-25T02:49:16;102285.66;;;12.07;60.33
5651;BME280;40241;52.684;9.758;2023-05-25T02:51:41;102295.31;;;12.12;60.34
5651;BME280;40241;52.684;9.758;2023-05-25T02:54:06;102296.81;;;12.13;60.35
5651;BME280;40241;52.684;9.758;2023-05-25T02:56:32;102284.56;;;12.14;60.33
5651;BME280;40241;52.684;9.758;2023-05-25T02:58:57;102287.34;;;12.14;60.47
5651;BME280;40241;52.684;9.758;2023-05-25T03:01:23;102285.34;;;12.14;60.47
5651;BME280;40241;52.684;9.758;2023-05-25T03:03:49;102283.19;;;12.18;60.66
5651;BME280;40241;52.684;9.758;2023-05-25T03:06:17;102299.09;;;12.23;60.61
5651;BME280;40241;52.684;9.758;2023-05-25T03:08:42;102286.69;;;12.28;60.53
5651;BME280;40241;52.684;9.758;2023-05-25T03:11:08;102294.22;;;12.27;60.66
5651;BME280;40241;52.684;9.758;2023-05-25T03:13:34;102298.47;;;12.28;60.79
5651;BME280;40241;52.684;9.758;2023-05-25T03:15:59;102290.22;;;12.28;60.80
5651;BME280;40241;52.684;9.758;2023-05-25T03:18:26;102293.56;;;12.32;60.91
5651;BME280;40241;52.684;9.758;2023-05-25T03:20:52;102296.19;;;12.36;60.88
5651;BME280;40241;52.684;9.758;2023-05-25T03:23:17;102301.69;;;12.36;60.88
5651;BME280;40241;52.684;9.758;2023-05-25T03:25:42;102295.22;;;12.39;60.84
5651;BME280;40241;52.684;9.758;2023-05-25T03:28:08;102298.28;;;12.41;61.07
5651;BME280;40241;52.684;9.758;2023-05-25T03:30:33;102299.06;;;12.41;61.03
5651;BME280;40241;52.684;9.758;2023-05-25T03:32:58;102298.59;;;12.43;61.07
5651;BME280;40241;52.684;9.758;2023-05-25T03:35:24;102298.16;;;12.44;61.20
5651;BME280;40241;52.684;9.758;2023-05-25T03:37:49;102326.53;;;12.45;61.21
5651;BME280;40241;52.684;9.758;2023-05-25T03:40:14;102309.00;;;12.48;61.07
5651;BME280;40241;52.684;9.758;2023-05-25T03:42:40;102316.81;;;12.49;60.95
5651;BME280;40241;52.684;9.758;2023-05-25T03:45:05;102320.34;;;12.50;61.03
5651;BME280;40241;52.684;9.758;2023-05-25T03:47:33;102313.94;;;12.44;61.02
5651;BME280;40241;52.684;9.758;2023-05-25T03:49:58;102323.75;;;12.45;61.24
5651;BME280;40241;52.684;9.758;2023-05-25T03:52:24;102311.78;;;12.48;61.34
5651;BME280;40241;52.684;9.758;2023-05-25T03:54:49;102324.06;;;12.47;61.38
5651;BME280;40241;52.684;9.758;2023-05-25T03:57:14;102313.44;;;12.54;61.29
5651;BME280;40241;52.684;9.758;2023-05-25T03:59:40;102321.56;;;12.58;61.44
5651;BME280;40241;52.684;9.758;2023-05-25T04:02:05;102328.59;;;12.59;61.44
5651;BME280;40241;52.684;9.758;2023-05-25T04:04:30;102326.63;;;12.59;61.42
5651;BME280;40241;52.684;9.758;2023-05-25T04:06:56;102327.69;;;12.62;61.31
5651;BME280;40241;52.684;9.758;2023-05-25T04:09:21;102326.44;;;12.63;61.48
5651;BME280;40241;52.684;9.758;2023-05-25T04:11:47;102325.53;;;12.66;61.49
5651;BME280;40241;52.684;9.758;2023-05-25T04:14:12;102327.81;;;12.67;61.28
5651;BME280;40241;52.684;9.758;2023-05-25T04:16:37;102328.56;;;12.68;61.32
5651;BME280;40241;52.684;9.758;2023-05-25T04:19:05;102323.34;;;12.70;61.34
5651;BME280;40241;52.684;9.758;2023-05-25T04:21:30;102331.00;;;12.75;61.25
5651;BME280;40241;52.684;9.758;2023-05-25T04:23:56;102328.25;;;12.75;61.33
5651;BME280;40241;52.684;9.758;2023-05-25T04:26:21;102327.31;;;12.78;61.47
5651;BME280;40241;52.684;9.758;2023-05-25T04:28:47;102332.38;;;12.79;61.44
5651;BME280;40241;52.684;9.758;2023-05-25T04:31:13;102329.63;;;12.79;61.49
5651;BME280;40241;52.684;9.758;2023-05-25T04:33:38;102328.66;;;12.82;61.51
5651;BME280;40241;52.684;9.758;2023-05-25T04:36:05;102334.03;;;12.86;61.36
5651;BME280;40241;52.684;9.758;2023-05-25T04:38:30;102338.16;;;12.91;61.23
5651;BME280;40241;52.684;9.758;2023-05-25T04:40:59;102348.25;;;12.94;61.51
5651;BME280;40241;52.684;9.758;2023-05-25T04:43:28;102342.28;;;12.95;61.54
5651;BME280;40241;52.684;9.758;2023-05-25T04:45:57;102346.09;;;12.98;61.57
5651;BME280;40241;52.684;9.758;2023-05-25T04:48:24;102348.41;;;12.99;61.38
5651;BME280;40241;52.684;9.758;2023-05-25T04:50:49;102346.72;;;13.02;61.46
5651;BME280;40241;52.684;9.758;2023-05-25T04:53:17;102347.75;;;13.04;61.55
5651;BME280;40241;52.684;9.758;2023-05-25T04:55:42;102348.84;;;13.07;61.36
5651;BME280;40241;52.684;9.758;2023-05-25T04:58:07;102350.22;;;13.11;61.35
5651;BME280;40241;52.684;9.758;2023-05-25T05:00:33;102349.28;;;13.14;61.35
5651;BME280;40241;52.684;9.758;2023-05-25T05:02:58;102358.16;;;13.18;61.23
5651;BME280;40241;52.684;9.758;2023-05-25T05:05:24;102369.81;;;13.22;61.16
5651;BME280;40241;52.684;9.758;2023-05-25T05:07:50;102367.63;;;13.26;61.16
5651;BME280;40241;52.684;9.758;2023-05-25T05:10:16;102364.72;;;13.30;61.19
5651;BME280;40241;52.684;9.758;2023-05-25T05:12:42;102359.47;;;13.32;60.97
5651;BME280;40241;52.684;9.758;2023-05-25T05:15:07;102360.53;;;13.34;61.10
5651;BME280;40241;52.684;9.758;2023-05-25T05:17:33;102362.06;;;13.35;61.11
5651;BME280;40241;52.684;9.758;2023-05-25T05:19:58;102361.13;;;13.38;61.22
5651;BME280;40241;52.684;9.758;2023-05-25T05:22:23;102366.00;;;13.43;61.15
5651;BME280;40241;52.684;9.758;2023-05-25T05:24:49;102366.59;;;13.47;61.07
5651;BME280;40241;52.684;9.758;2023-05-25T05:27:15;102365.47;;;13.54;61.20
5651;BME280;40241;52.684;9.758;2023-05-25T05:29:40;102367.56;;;13.59;61.09
5651;BME280;40241;52.684;9.758;2023-05-25T05:32:07;102372.94;;;13.63;61.19
5651;BME280;40241;52.684;9.758;2023-05-25T05:34:32;102372.75;;;13.66;61.00
5651;BME280;40241;52.684;9.758;2023-05-25T05:36:58;102374.59;;;13.69;61.21
5651;BME280;40241;52.684;9.758;2023-05-25T05:39:26;102377.19;;;13.73;61.13
5651;BME280;40241;52.684;9.758;2023-05-25T05:41:52;102381.59;;;13.79;60.96
5651;BME280;40241;52.684;9.758;2023-05-25T05:44:19;102388.47;;;13.84;61.02
5651;BME280;40241;52.684;9.758;2023-05-25T05:46:45;102391.34;;;13.89;61.19
5651;BME280;40241;52.684;9.758;2023-05-25T05:49:10;102387.16;;;13.94;61.07
5651;BME280;40241;52.684;9.758;2023-05-25T05:51:35;102390.97;;;13.96;61.06
5651;BME280;40241;52.684;9.758;2023-05-25T05:54:01;102393.88;;;14.02;61.52
5651;BME280;40241;52.684;9.758;2023-05-25T05:56:26;102395.22;;;14.06;61.24
5651;BME280;40241;52.684;9.758;2023-05-25T05:58:52;102403.31;;;14.10;61.33
5651;BME280;40241;52.684;9.758;2023-05-25T06:01:18;102401.91;;;14.14;61.31
5651;BME280;40241;52.684;9.758;2023-05-25T06:03:44;102402.19;;;14.16;61.25
5651;BME280;40241;52.684;9.758;2023-05-25T06:06:10;102411.84;;;14.21;61.28
5651;BME280;40241;52.684;9.758;2023-05-25T06:08:35;102401.06;;;14.23;61.26
5651;BME280;40241;52.684;9.758;2023-05-25T06:11:01;102403.50;;;14.30;61.34
5651;BME280;40241;52.684;9.758;2023-05-25T06:13:26;102407.03;;;14.31;61.28
5651;BME280;40241;52.684;9.758;2023-05-25T06:15:51;102404.84;;;14.35;61.15
5651;BME280;40241;52.684;9.758;2023-05-25T06:18:17;102408.47;;;14.41;61.15
5651;BME280;40241;52.684;9.758;2023-05-25T06:20:42;102413.06;;;14.44;61.14
5651;BME280;40241;52.684;9.758;2023-05-25T06:23:08;102408.09;;;14.48;61.13
5651;BME280;40241;52.684;9.758;2023-05-25T06:25:36;102414.69;;;14.50;61.06
5651;BME280;40241;52.684;9.758;2023-05-25T06:28:01;102420.50;;;14.52;61.20
5651;BME280;40241;52.684;9.758;2023-05-25T06:30:26;102412.28;;;14.58;61.08
5651;BME280;40241;52.684;9.758;2023-05-25T06:32:52;102421.16;;;14.62;61.04
5651;BME280;40241;52.684;9.758;2023-05-25T06:35:17;102418.22;;;14.65;61.01
5651;BME280;40241;52.684;9.758;2023-05-25T06:37:46;102409.22;;;14.70;61.11
5651;BME280;40241;52.684;9.758;2023-05-25T06:40:12;102417.38;;;14.74;60.96
5651;BME280;40241;52.684;9.758;2023-05-25T06:42:38;102424.53;;;14.80;60.95
5651;BME280;40241;52.684;9.758;2023-05-25T06:45:04;102426.81;;;14.82;60.91
5651;BME280;40241;52.684;9.758;2023-05-25T06:47:30;102424.31;;;14.84;60.98
5651;BME280;40241;52.684;9.758;2023-05-25T06:49:55;102423.56;;;14.83;60.97
5651;BME280;40241;52.684;9.758;2023-05-25T06:52:21;102427.59;;;14.82;60.78
5651;BME280;40241;52.684;9.758;2023-05-25T06:54:46;102433.13;;;14.82;60.89
5651;BME280;40241;52.684;9.758;2023-05-25T06:57:12;102433.69;;;14.86;60.81
5651;BME280;40241;52.684;9.758;2023-05-25T06:59:37;102431.19;;;14.88;60.88
5651;BME280;40241;52.684;9.758;2023-05-25T07:02:02;102432.75;;;14.89;60.84
5651;BME280;40241;52.684;9.758;2023-05-25T07:04:27;102439.91;;;14.81;60.85
5651;BME280;40241;52.684;9.758;2023-05-25T07:06:53;102452.53;;;14.82;60.69
5651;BME280;40241;52.684;9.758;2023-05-25T07:09:18;102444.22;;;14.82;60.93
5651;BME280;40241;52.684;9.758;2023-05-25T07:11:43;102444.50;;;14.84;60.68
5651;BME280;40241;52.684;9.758;2023-05-25T07:14:09;102440.75;;;14.87;60.61
5651;BME280;40241;52.684;9.758;2023-05-25T07:16:34;102453.38;;;14.88;60.69
5651;BME280;40241;52.684;9.758;2023-05-25T07:19:00;102454.59;;;14.87;60.71
5651;BME280;40241;52.684;9.758;2023-05-25T07:21:25;102455.19;;;14.91;60.62
5651;BME280;40241;52.684;9.758;2023-05-25T07:23:51;102457.28;;;14.96;60.61
5651;BME280;40241;52.684;9.758;2023-05-25T07:26:16;102458.63;;;15.01;60.55
5651;BME280;40241;52.684;9.758;2023-05-25T07:28:42;102461.94;;;15.05;60.57
5651;BME280;40241;52.684;9.758;2023-05-25T07:31:08;102467.31;;;15.09;60.53
5651;BME280;40241;52.684;9.758;2023-05-25T07:33:34;102464.06;;;15.10;60.59
5651;BME280;40241;52.684;9.758;2023-05-25T07:35:59;102460.53;;;15.10;60.57
5651;BME280;40241;52.684;9.758;2023-05-25T07:38:24;102465.41;;;15.15;60.59
5651;BME280;40241;52.684;9.758;2023-05-25T07:40:50;102467.97;;;15.18;60.51
5651;BME280;40241;52.684;9.758;2023-05-25T07:43:16;102469.78;;;15.21;60.35
5651;BME280;40241;52.684;9.758;2023-05-25T07:45:42;102471.00;;;15.20;60.41
5651;BME280;40241;52.684;9.758;2023-05-25T07:48:07;102477.34;;;15.21;60.48
5651;BME280;40241;52.684;9.758;2023-05-25T07:50:33;102468.84;;;15.24;60.43
5651;BME280;40241;52.684;9.758;2023-05-25T07:52:59;102475.72;;;15.29;60.35
5651;BME280;40241;52.684;9.758;2023-05-25T07:55:25;102470.72;;;15.33;60.33
5651;BME280;40241;52.684;9.758;2023-05-25T07:57:51;102474.75;;;15.32;59.99
5651;BME280;40241;52.684;9.758;2023-05-25T08:00:17;102479.50;;;15.31;60.01
5651;BME280;40241;52.684;9.758;2023-05-25T08:02:43;102480.28;;;15.32;60.07
5651;BME280;40241;52.684;9.758;2023-05-25T08:05:08;102478.50;;;15.29;60.20
5651;BME280;40241;52.684;9.758;2023-05-25T08:07:34;102477.03;;;15.33;60.21
5651;BME280;40241;52.684;9.758;2023-05-25T08:10:00;102474.56;;;15.35;60.08
5651;BME280;40241;52.684;9.758;2023-05-25T08:12:25;102476.34;;;15.38;60.26
5651;BME280;40241;52.684;9.758;2023-05-25T08:14:51;102480.00;;;15.44;60.00
5651;BME280;40241;52.684;9.758;2023-05-25T08:17:18;102487.38;;;15.47;59.97
5651;BME280;40241;52.684;9.758;2023-05-25T08:19:43;102486.13;;;15.48;59.85
5651;BME280;40241;52.684;9.758;2023-05-25T08:22:08;102495.19;;;15.49;59.87
5651;BME280;40241;52.684;9.758;2023-05-25T08:24:34;102487.16;;;15.51;59.71
5651;BME280;40241;52.684;9.758;2023-05-25T08:26:59;102488.69;;;15.52;59.82
5651;BME280;40241;52.684;9.758;2023-05-25T08:29:26;102482.19;;;15.55;59.69
5651;BME280;40241;52.684;9.758;2023-05-25T08:31:51;102479.69;;;15.57;59.67
5651;BME280;40241;52.684;9.758;2023-05-25T08:34:16;102479.47;;;15.60;59.56
5651;BME280;40241;52.684;9.758;2023-05-25T08:36:42;102479.28;;;15.64;59.58
5651;BME280;40241;52.684;9.758;2023-05-25T08:39:07;102478.41;;;15.72;59.67
5651;BME280;40241;52.684;9.758;2023-05-25T08:41:41;102495.63;;;15.77;59.13
5651;BME280;40241;52.684;9.758;2023-05-25T08:44:07;102491.84;;;15.80;59.32
5651;BME280;40241;52.684;9.758;2023-05-25T08:46:33;102499.78;;;15.87;59.13
5651;BME280;40241;52.684;9.758;2023-05-25T08:49:05;102490.00;;;15.91;58.86
5651;BME280;40241;52.684;9.758;2023-05-25T08:51:49;102494.88;;;15.96;58.87
5651;BME280;40241;52.684;9.758;2023-05-25T08:54:22;102495.97;;;16.04;58.55
5651;BME280;40241;52.684;9.758;2023-05-25T08:56:50;102496.81;;;16.10;58.59
5651;BME280;40241;52.684;9.758;2023-05-25T08:59:30;102501.69;;;16.15;58.25
5651;BME280;40241;52.684;9.758;2023-05-25T09:02:25;102499.72;;;16.21;57.87
5651;BME280;40241;52.684;9.758;2023-05-25T09:04:54;102504.88;;;16.28;58.26
5651;BME280;40241;52.684;9.758;2023-05-25T09:07:20;102496.53;;;16.28;58.27
5651;BME280;40241;52.684;9.758;2023-05-25T09:09:47;102500.63;;;16.33;58.34
5651;BME280;40241;52.684;9.758;2023-05-25T09:12:12;102504.72;;;16.37;58.36
5651;BME280;40241;52.684;9.758;2023-05-25T09:14:39;102512.34;;;16.42;57.97
5651;BME280;40241;52.684;9.758;2023-05-25T09:17:11;102509.09;;;16.44;57.74
5651;BME280;40241;52.684;9.758;2023-05-25T09:19:37;102510.13;;;16.46;57.92
5651;BME280;40241;52.684;9.758;2023-05-25T09:22:02;102504.56;;;16.46;57.77
5651;BME280;40241;52.684;9.758;2023-05-25T09:24:28;102506.09;;;16.47;57.68
5651;BME280;40241;52.684;9.758;2023-05-25T09:26:53;102505.81;;;16.45;57.47
5651;BME280;40241;52.684;9.758;2023-05-25T09:29:19;102510.41;;;16.48;57.82
5651;BME280;40241;52.684;9.758;2023-05-25T09:31:45;102513.75;;;16.53;57.39
5651;BME280;40241;52.684;9.758;2023-05-25T09:34:12;102510.28;;;16.58;57.41
5651;BME280;40241;52.684;9.758;2023-05-25T09:36:38;102511.66;;;16.68;57.39
5651;BME280;40241;52.684;9.758;2023-05-25T09:39:10;102503.69;;;16.81;57.25
5651;BME280;40241;52.684;9.758;2023-05-25T09:41:37;102509.88;;;16.90;56.90
5651;BME280;40241;52.684;9.758;2023-05-25T09:44:04;102512.69;;;16.96;57.00
5651;BME280;40241;52.684;9.758;2023-05-25T09:46:30;102509.19;;;17.01;56.73
5651;BME280;40241;52.684;9.758;2023-05-25T09:49:00;102504.16;;;17.05;56.67
5651;BME280;40241;52.684;9.758;2023-05-25T09:51:25;102510.38;;;17.20;56.98
5651;BME280;40241;52.684;9.758;2023-05-25T09:53:51;102515.25;;;17.31;56.59
5651;BME280;40241;52.684;9.758;2023-05-25T09:56:16;102515.56;;;17.38;56.36
5651;BME280;40241;52.684;9.758;2023-05-25T09:58:42;102517.41;;;17.47;56.55
5651;BME280;40241;52.684;9.758;2023-05-25T10:01:07;102518.75;;;17.57;56.29
5651;BME280;40241;52.684;9.758;2023-05-25T10:03:33;102518.03;;;17.62;55.93
5651;BME280;40241;52.684;9.758;2023-05-25T10:05:58;102518.56;;;17.66;55.91
5651;BME280;40241;52.684;9.758;2023-05-25T10:08:26;102519.38;;;17.72;55.83
5651;BME280;40241;52.684;9.758;2023-05-25T10:10:51;102517.69;;;17.91;55.65
5651;BME280;40241;52.684;9.758;2023-05-25T10:13:20;102522.91;;;18.15;55.34
5651;BME280;40241;52.684;9.758;2023-05-25T10:15:52;102523.22;;;18.28;55.02
5651;BME280;40241;52.684;9.758;2023-05-25T10:18:23;102522.41;;;18.22;54.26
5651;BME280;40241;52.684;9.758;2023-05-25T10:20:53;102514.56;;;18.20;54.88
5651;BME280;40241;52.684;9.758;2023-05-25T10:23:21;102528.53;;;18.26;54.81
5651;BME280;40241;52.684;9.758;2023-05-25T10:25:49;102523.22;;;18.28;54.76
5651;BME280;40241;52.684;9.758;2023-05-25T10:28:27;102532.34;;;18.34;54.79
5651;BME280;40241;52.684;9.758;2023-05-25T10:30:54;102537.41;;;18.35;54.56
5651;BME280;40241;52.684;9.758;2023-05-25T10:33:21;102526.03;;;18.39;54.98
5651;BME280;40241;52.684;9.758;2023-05-25T10:35:48;102531.13;;;18.46;54.60
5651;BME280;40241;52.684;9.758;2023-05-25T10:38:13;102523.31;;;18.50;54.63
5651;BME280;40241;52.684;9.758;2023-05-25T10:40:39;102525.34;;;18.55;54.50
5651;BME280;40241;52.684;9.758;2023-05-25T10:43:05;102531.44;;;18.59;54.21
5651;BME280;40241;52.684;9.758;2023-05-25T10:45:31;102521.53;;;18.52;54.04
5651;BME280;40241;52.684;9.758;2023-05-25T10:47:57;102523.25;;;18.39;53.89
5651;BME280;40241;52.684;9.758;2023-05-25T10:50:24;102510.63;;;18.49;53.61
5651;BME280;40241;52.684;9.758;2023-05-25T10:55:40;102508.19;;;18.95;53.29
5651;BME280;40241;52.684;9.758;2023-05-25T10:58:07;102504.13;;;19.02;53.37
5651;BME280;40241;52.684;9.758;2023-05-25T11:00:33;102510.47;;;19.02;53.31
5651;BME280;40241;52.684;9.758;2023-05-25T11:02:58;102506.13;;;19.07;53.33
5651;BME280;40241;52.684;9.758;2023-05-25T11:07:57;102508.69;;;19.10;52.74
5651;BME280;40241;52.684;9.758;2023-05-25T11:13:23;102504.63;;;18.89;52.19
5651;BME280;40241;52.684;9.758;2023-05-25T11:18:43;102499.56;;;18.93;52.75
5651;BME280;40241;52.684;9.758;2023-05-25T11:24:01;102503.63;;;19.03;51.77
5651;BME280;40241;52.684;9.758;2023-05-25T11:26:34;102498.06;;;19.09;52.61
5651;BME280;40241;52.684;9.758;2023-05-25T11:29:01;102492.72;;;19.16;52.73
5651;BME280;40241;52.684;9.758;2023-05-25T11:31:35;102499.53;;;19.26;52.70
5651;BME280;40241;52.684;9.758;2023-05-25T11:34:02;102495.53;;;19.38;52.39
5651;BME280;40241;52.684;9.758;2023-05-25T11:36:32;102499.56;;;19.49;52.36
5651;BME280;40241;52.684;9.758;2023-05-25T11:39:03;102500.06;;;19.53;51.67
5651;BME280;40241;52.684;9.758;2023-05-25T11:41:29;102494.75;;;19.49;51.60
5651;BME280;40241;52.684;9.758;2023-05-25T11:44:05;102505.66;;;19.47;50.72
5651;BME280;40241;52.684;9.758;2023-05-25T11:46:31;102499.56;;;19.49;51.53
5651;BME280;40241;52.684;9.758;2023-05-25T11:48:58;102490.69;;;19.50;51.65
5651;BME280;40241;52.684;9.758;2023-05-25T11:51:25;102484.59;;;19.46;51.18
5651;BME280;40241;52.684;9.758;2023-05-25T11:53:50;102484.31;;;19.44;51.17
5651;BME280;40241;52.684;9.758;2023-05-25T11:56:17;102486.88;;;19.48;51.25
5651;BME280;40241;52.684;9.758;2023-05-25T11:58:43;102485.31;;;19.58;51.52
5651;BME280;40241;52.684;9.758;2023-05-25T12:01:18;102487.00;;;19.94;50.50
5651;BME280;40241;52.684;9.758;2023-05-25T12:03:48;102483.00;;;20.41;49.78
5651;BME280;40241;52.684;9.758;2023-05-25T12:06:30;102482.78;;;20.74;48.25
5651;BME280;40241;52.684;9.758;2023-05-25T12:08:56;102485.22;;;20.54;49.56
5651;BME280;40241;52.684;9.758;2023-05-25T12:11:35;102481.16;;;20.49;48.88
5651;BME280;40241;52.684;9.758;2023-05-25T12:14:03;102488.06;;;20.48;49.58
5651;BME280;40241;52.684;9.758;2023-05-25T12:16:29;102479.41;;;20.46;49.24
5651;BME280;40241;52.684;9.758;2023-05-25T12:18:56;102482.38;;;20.59;49.54
5651;BME280;40241;52.684;9.758;2023-05-25T12:21:22;102474.34;;;20.80;49.11
5651;BME280;40241;52.684;9.758;2023-05-25T12:23:49;102477.97;;;20.75;49.19
5651;BME280;40241;52.684;9.758;2023-05-25T12:26:16;102479.47;;;20.76;48.84
5651;BME280;40241;52.684;9.758;2023-05-25T12:31:28;102477.06;;;20.56;49.30
5651;BME280;40241;52.684;9.758;2023-05-25T12:34:14;102480.94;;;20.47;48.59
5651;BME280;40241;52.684;9.758;2023-05-25T12:36:44;102475.34;;;20.47;49.31
5651;BME280;40241;52.684;9.758;2023-05-25T12:39:12;102465.88;;;20.56;49.23
5651;BME280;40241;52.684;9.758;2023-05-25T12:41:52;102461.25;;;20.64;47.44
5651;BME280;40241;52.684;9.758;2023-05-25T12:44:22;102458.41;;;20.69;45.45
5651;BME280;40241;52.684;9.758;2023-05-25T12:46:50;102457.72;;;20.58;48.30
5651;BME280;40241;52.684;9.758;2023-05-25T12:51:52;102461.69;;;20.33;49.10
5651;BME280;40241;52.684;9.758;2023-05-25T12:54:34;102456.06;;;20.38;47.73
5651;BME280;40241;52.684;9.758;2023-05-25T12:56:59;102441.75;;;20.53;48.65
5651;BME280;40241;52.684;9.758;2023-05-25T12:59:27;102446.75;;;20.65;48.51
5651;BME280;40241;52.684;9.758;2023-05-25T13:01:52;102441.44;;;20.91;48.41
5651;BME280;40241;52.684;9.758;2023-05-25T13:04:17;102440.31;;;21.06;48.39
5651;BME280;40241;52.684;9.758;2023-05-25T13:06:44;102436.25;;;21.07;47.92
5651;BME280;40241;52.684;9.758;2023-05-25T13:09:09;102438.09;;;20.99;47.89
5651;BME280;40241;52.684;9.758;2023-05-25T13:11:35;102433.22;;;21.05;48.07
5651;BME280;40241;52.684;9.758;2023-05-25T13:14:00;102441.44;;;21.21;47.93
5651;BME280;40241;52.684;9.758;2023-05-25T13:16:26;102433.81;;;21.46;47.83
5651;BME280;40241;52.684;9.758;2023-05-25T13:18:51;102429.56;;;21.63;47.31
5651;BME280;40241;52.684;9.758;2023-05-25T13:21:17;102431.34;;;21.61;46.73